Weather at Dainava Airstrip

Public forecast

Using degrees Celsius for public forecast. Weather courtesy of forecast.io.

Closest aviation weather report (METAR) to Dainava Airstrip

Closest report is Vilnius International Airport, 18.7 nm (34.6 km) N.

2024/07/17 13:50 (retrieved 35 minutes ago)

EYVI 171350Z 31005KT 290V350 9999 FEW043 27/17 Q1017 NOSIG

Closest aviation forecast (TAF) to Dainava Airstrip

Closest forecast is Vilnius International Airport, 18.7 nm (34.6 km) N.

2024/07/17 12:03 (retrieved 2 hours ago)

TAF EYVI 171100Z 1712/1812 26010KT 9000 SCT030 BECMG 1716/1718 VRB05KT BECMG 1808/1810 30010KT